Time;durP1;ratioP1;P1;durP2;ratioP2;P2;SDS_P1;SDS_P2;PMS_P1;PMS_P2;Temp;Humidity;BMP_temperature;BMP_pressure;BME280_temperature;BME280_humidity;BME280_pressure;Samples;Min_cycle;Max_cycle;Signal;HPM_P1;HPM_P2
2021/06/10 00:02:18;;;;;;;16.10;13.80;;;19.90;99.90;;;;;;4989902;28;20042;-69
2021/06/10 00:04:44;;;;;;;18.38;12.75;;;19.90;99.90;;;;;;4989897;28;20121;-69
2021/06/10 00:07:11;;;;;;;16.05;13.02;;;19.80;99.90;;;;;;4983301;28;20114;-69
2021/06/10 00:09:37;;;;;;;24.00;13.85;;;19.80;99.90;;;;;;4972388;28;20412;-70
2021/06/10 00:12:04;;;;;;;20.80;13.20;;;19.80;99.90;;;;;;4991583;28;20094;-70
2021/06/10 00:14:30;;;;;;;16.67;13.27;;;19.60;99.90;;;;;;4989569;28;20161;-72
2021/06/10 00:16:55;;;;;;;20.30;14.30;;;19.60;99.90;;;;;;4990145;28;20129;-71
2021/06/10 00:19:21;;;;;;;19.38;13.65;;;19.50;99.90;;;;;;4989796;28;20484;-71
2021/06/10 00:21:47;;;;;;;17.08;13.75;;;19.50;99.90;;;;;;4989570;28;20453;-71
2021/06/10 00:24:13;;;;;;;20.00;13.88;;;19.60;99.90;;;;;;4991100;28;20026;-71
2021/06/10 00:26:39;;;;;;;18.67;13.35;;;19.60;99.90;;;;;;4990026;28;20042;-70
2021/06/10 00:29:05;;;;;;;18.27;13.60;;;19.50;99.90;;;;;;4989644;28;20022;-71
2021/06/10 00:31:32;;;;;;;18.08;13.55;;;19.60;99.90;;;;;;4980529;28;20105;-70
2021/06/10 00:33:57;;;;;;;20.45;13.38;;;19.60;99.90;;;;;;4970069;28;20161;-70
2021/06/10 00:36:23;;;;;;;17.40;13.43;;;19.60;99.90;;;;;;4985415;28;20134;-70
2021/06/10 00:38:49;;;;;;;18.55;13.55;;;19.60;99.90;;;;;;4990221;28;20034;-69
2021/06/10 00:41:15;;;;;;;18.95;13.60;;;19.60;99.90;;;;;;4977367;28;20042;-70
2021/06/10 00:43:41;;;;;;;18.58;13.45;;;19.60;99.90;;;;;;4974008;28;20134;-70
2021/06/10 00:46:07;;;;;;;17.85;14.05;;;19.60;99.90;;;;;;4979897;28;20396;-71
2021/06/10 00:48:34;;;;;;;20.48;15.07;;;19.50;99.90;;;;;;4992184;28;20507;-72
2021/06/10 00:51:01;;;;;;;20.67;14.38;;;19.50;99.90;;;;;;4975525;28;20050;-72
2021/06/10 00:53:26;;;;;;;18.02;13.80;;;19.40;99.90;;;;;;4990695;28;20481;-70
2021/06/10 00:55:55;;;;;;;18.30;13.85;;;19.40;99.90;;;;;;4993111;28;20114;-70
2021/06/10 00:58:22;;;;;;;19.48;15.85;;;19.40;99.90;;;;;;4992235;28;20050;-71
2021/06/10 01:00:48;;;;;;;19.85;14.25;;;19.30;99.90;;;;;;4989581;28;20063;-71
2021/06/10 01:03:14;;;;;;;18.77;13.65;;;19.30;99.90;;;;;;4975462;28;20062;-71
2021/06/10 01:05:41;;;;;;;19.33;14.75;;;19.20;99.90;;;;;;4992216;28;20092;-70
2021/06/10 01:08:29;;;;;;;17.73;14.52;;;19.10;99.90;;;;;;4978924;28;20031;-70
2021/06/10 01:11:25;;;;;;;19.80;14.63;;;19.10;99.90;;;;;;4973468;28;20114;-70
2021/06/10 01:14:09;;;;;;;20.35;15.63;;;19.00;99.90;;;;;;4985585;28;20053;-70
2021/06/10 01:16:37;;;;;;;16.83;14.25;;;18.90;99.90;;;;;;4992620;28;20030;-70
2021/06/10 01:19:10;;;;;;;22.42;14.88;;;18.90;99.90;;;;;;4992762;28;20031;-69
2021/06/10 01:21:37;;;;;;;21.33;16.15;;;18.90;99.90;;;;;;4993131;28;20101;-70
2021/06/10 01:24:26;;;;;;;18.13;15.00;;;18.90;99.90;;;;;;4994511;28;20080;-71
2021/06/10 01:27:05;;;;;;;21.63;15.68;;;18.80;99.90;;;;;;4992864;28;20042;-70
2021/06/10 01:29:32;;;;;;;18.23;14.50;;;18.80;99.90;;;;;;4992548;28;20038;-70
2021/06/10 01:31:59;;;;;;;23.88;15.38;;;18.80;99.90;;;;;;4992376;28;20050;-70
2021/06/10 01:34:25;;;;;;;18.60;14.50;;;18.80;99.90;;;;;;4992158;28;20109;-70
2021/06/10 01:36:54;;;;;;;22.35;14.85;;;18.80;99.90;;;;;;5008756;28;20046;-70
2021/06/10 01:39:24;;;;;;;24.00;14.50;;;18.70;99.90;;;;;;5013400;28;20064;-69
2021/06/10 01:41:50;;;;;;;19.60;15.40;;;18.60;99.90;;;;;;5011933;28;20042;-71
2021/06/10 01:44:16;;;;;;;20.77;15.18;;;18.60;99.90;;;;;;5011643;28;20746;-70
2021/06/10 01:46:42;;;;;;;20.52;16.48;;;18.60;99.90;;;;;;5011733;28;20054;-71
2021/06/10 01:49:11;;;;;;;20.75;14.80;;;18.50;99.90;;;;;;5011959;28;20029;-71
2021/06/10 01:51:37;;;;;;;18.35;15.02;;;18.50;99.90;;;;;;5010877;28;20105;-71
2021/06/10 01:54:06;;;;;;;22.63;14.52;;;18.50;99.90;;;;;;5012960;28;20030;-70
2021/06/10 01:56:33;;;;;;;23.48;16.92;;;18.60;99.90;;;;;;5011610;28;20084;-70
2021/06/10 01:59:00;;;;;;;23.50;15.82;;;18.60;99.90;;;;;;5011305;28;20066;-70
2021/06/10 02:01:28;;;;;;;20.25;16.20;;;18.50;99.90;;;;;;5011446;28;20062;-70
2021/06/10 02:03:55;;;;;;;19.38;15.25;;;18.50;99.90;;;;;;5011699;28;20478;-70
2021/06/10 02:06:22;;;;;;;20.20;15.77;;;18.60;99.90;;;;;;5012669;28;20057;-70
2021/06/10 02:08:50;;;;;;;20.58;15.23;;;18.50;99.90;;;;;;5011583;28;20378;-70
2021/06/10 02:11:16;;;;;;;22.75;15.75;;;18.40;99.90;;;;;;5011323;28;20125;-71
2021/06/10 02:13:43;;;;;;;21.42;15.25;;;18.50;99.90;;;;;;5010995;28;20124;-70
2021/06/10 02:16:10;;;;;;;20.13;15.95;;;18.40;99.90;;;;;;5011041;28;20539;-70
2021/06/10 02:18:40;;;;;;;20.98;16.27;;;18.40;99.90;;;;;;5011608;28;20022;-70
2021/06/10 02:21:09;;;;;;;24.65;16.55;;;18.30;99.90;;;;;;5012651;28;20104;-70
2021/06/10 02:23:39;;;;;;;19.33;15.77;;;18.30;99.90;;;;;;5011188;28;20038;-71
2021/06/10 02:26:06;;;;;;;19.42;16.02;;;18.40;99.90;;;;;;5010997;28;20033;-70
2021/06/10 02:28:32;;;;;;;19.20;15.75;;;18.30;99.90;;;;;;5010974;28;20113;-71
2021/06/10 02:30:59;;;;;;;21.00;16.73;;;18.30;99.90;;;;;;5011013;28;20038;-70
2021/06/10 02:33:25;;;;;;;25.13;16.25;;;18.30;99.90;;;;;;5010915;28;20014;-70
2021/06/10 02:35:51;;;;;;;25.15;16.17;;;18.20;99.90;;;;;;5012421;28;20156;-71
2021/06/10 02:38:19;;;;;;;22.08;16.88;;;18.10;99.90;;;;;;5011103;28;20132;-71
2021/06/10 02:40:48;;;;;;;22.52;16.38;;;18.10;99.90;;;;;;5010841;28;20062;-70
2021/06/10 02:43:13;;;;;;;20.40;16.45;;;18.10;99.90;;;;;;5010595;28;20072;-72
2021/06/10 02:45:43;;;;;;;21.35;15.73;;;18.10;99.90;;;;;;5010510;28;20053;-71
2021/06/10 02:48:09;;;;;;;22.00;15.93;;;18.10;99.90;;;;;;5012653;28;20099;-71
2021/06/10 02:50:39;;;;;;;20.83;15.70;;;18.10;99.90;;;;;;5010553;28;20439;-70
2021/06/10 02:53:05;;;;;;;21.90;15.93;;;18.10;99.90;;;;;;5010639;28;20131;-71
2021/06/10 02:55:33;;;;;;;20.98;16.48;;;18.10;99.90;;;;;;5010696;28;20034;-70
2021/06/10 02:57:59;;;;;;;27.48;16.83;;;18.10;99.90;;;;;;5010675;28;20071;-71
2021/06/10 03:00:31;;;;;;;23.38;16.25;;;18.10;99.90;;;;;;5010626;28;20034;-70
2021/06/10 03:02:59;;;;;;;21.35;16.23;;;18.10;99.90;;;;;;5011999;28;20018;-70
2021/06/10 03:05:26;;;;;;;23.92;16.48;;;18.00;99.90;;;;;;5010521;28;20125;-69
2021/06/10 03:07:53;;;;;;;22.23;16.52;;;18.00;99.90;;;;;;5010441;28;20483;-71
2021/06/10 03:10:22;;;;;;;20.35;15.35;;;18.00;99.90;;;;;;5010476;28;20045;-71
2021/06/10 03:12:49;;;;;;;29.85;16.77;;;18.00;99.90;;;;;;5010265;28;20030;-70
2021/06/10 03:15:15;;;;;;;21.48;15.20;;;17.90;99.90;;;;;;5011938;28;20604;-69
2021/06/10 03:17:42;;;;;;;20.13;15.95;;;17.90;99.90;;;;;;5010253;28;20099;-70
2021/06/10 03:20:08;;;;;;;19.38;14.95;;;17.90;99.90;;;;;;5010412;28;20038;-70
2021/06/10 03:22:35;;;;;;;23.88;15.68;;;17.80;99.90;;;;;;5009114;28;20119;-70
2021/06/10 03:25:03;;;;;;;20.55;16.30;;;17.90;99.90;;;;;;5010473;28;20199;-70
2021/06/10 03:27:31;;;;;;;21.60;15.45;;;17.90;99.90;;;;;;5008832;28;20017;-70
2021/06/10 03:29:57;;;;;;;26.63;15.65;;;17.90;99.90;;;;;;5011349;28;20033;-70
2021/06/10 03:32:25;;;;;;;22.42;16.23;;;17.80;99.90;;;;;;5010267;28;20033;-70
2021/06/10 03:34:51;;;;;;;21.38;15.65;;;17.80;99.90;;;;;;5009773;28;20157;-70
2021/06/10 03:37:17;;;;;;;21.17;16.20;;;17.80;99.90;;;;;;5010097;28;20471;-70
2021/06/10 03:39:43;;;;;;;24.73;16.25;;;17.80;99.90;;;;;;5009680;28;20048;-69
2021/06/10 03:42:10;;;;;;;20.90;15.93;;;17.80;99.90;;;;;;5011114;28;20022;-70
2021/06/10 03:44:36;;;;;;;20.48;15.93;;;17.70;99.90;;;;;;5009381;28;20060;-72
2021/06/10 03:47:01;;;;;;;23.88;16.35;;;17.70;99.90;;;;;;5009595;28;20038;-70
2021/06/10 03:49:27;;;;;;;25.35;16.98;;;17.70;99.90;;;;;;5009722;28;20037;-70
2021/06/10 03:51:54;;;;;;;22.10;16.33;;;17.70;99.90;;;;;;5009519;28;20061;-70
2021/06/10 03:54:20;;;;;;;20.92;16.60;;;17.80;99.90;;;;;;5011293;28;20072;-70
2021/06/10 03:56:47;;;;;;;25.77;15.98;;;17.70;99.90;;;;;;5009711;28;20590;-71
2021/06/10 03:59:13;;;;;;;22.90;16.70;;;17.70;99.90;;;;;;5009300;28;20038;-70
2021/06/10 04:01:39;;;;;;;22.05;16.55;;;17.70;99.90;;;;;;5009464;28;20038;-70
2021/06/10 04:04:04;;;;;;;22.50;16.27;;;17.70;99.90;;;;;;5009333;28;20129;-70
2021/06/10 04:06:34;;;;;;;22.80;16.50;;;17.70;99.90;;;;;;5009301;28;20026;-70
2021/06/10 04:09:01;;;;;;;27.65;17.58;;;17.70;99.90;;;;;;5011073;28;20010;-71
2021/06/10 04:11:27;;;;;;;24.92;16.60;;;17.70;99.90;;;;;;5009411;28;20096;-71
2021/06/10 04:13:53;;;;;;;25.48;17.08;;;17.80;99.90;;;;;;5008144;28;20041;-70
2021/06/10 04:16:19;;;;;;;21.52;16.73;;;17.80;99.90;;;;;;5011303;28;20037;-71
2021/06/10 04:18:45;;;;;;;25.02;16.25;;;17.80;99.90;;;;;;5013484;28;20034;-72
2021/06/10 04:21:11;;;;;;;23.33;17.15;;;17.80;99.90;;;;;;5014771;28;20037;-70
2021/06/10 04:23:37;;;;;;;24.95;16.83;;;17.90;99.90;;;;;;5013450;28;20149;-70
2021/06/10 04:26:03;;;;;;;25.17;16.58;;;17.90;99.90;;;;;;5013050;28;20053;-71
2021/06/10 04:28:29;;;;;;;21.98;16.88;;;17.90;99.90;;;;;;5013305;28;20081;-72
2021/06/10 04:30:54;;;;;;;25.35;16.92;;;18.00;99.90;;;;;;5013382;28;20048;-70
2021/06/10 04:33:20;;;;;;;21.13;16.40;;;18.00;99.90;;;;;;5014713;28;20022;-71
2021/06/10 04:35:46;;;;;;;26.00;17.25;;;18.00;99.90;;;;;;5013387;28;20060;-71
2021/06/10 04:38:13;;;;;;;23.25;16.95;;;18.10;99.90;;;;;;5013303;28;20379;-71
2021/06/10 04:40:39;;;;;;;21.63;15.48;;;18.20;99.90;;;;;;5013412;28;20116;-72
2021/06/10 04:43:05;;;;;;;20.90;15.13;;;18.20;99.90;;;;;;5012774;28;20336;-72
2021/06/10 04:45:31;;;;;;;23.65;15.52;;;18.30;99.90;;;;;;5012824;28;20034;-71
2021/06/10 04:47:56;;;;;;;21.45;15.82;;;18.40;99.90;;;;;;5014549;28;20084;-72
2021/06/10 04:50:26;;;;;;;21.88;15.20;;;18.50;99.90;;;;;;5013145;28;20388;-71
2021/06/10 04:52:51;;;;;;;23.88;16.48;;;18.60;99.90;;;;;;5011847;28;20041;-72
2021/06/10 04:55:17;;;;;;;19.90;15.25;;;18.60;99.90;;;;;;5012944;28;20448;-72
2021/06/10 04:57:42;;;;;;;25.30;15.80;;;18.60;99.90;;;;;;5012538;28;20126;-71
2021/06/10 05:00:09;;;;;;;22.17;15.85;;;18.80;99.90;;;;;;5029718;28;20028;-68
2021/06/10 05:02:36;;;;;;;25.00;15.82;;;18.80;99.90;;;;;;5011666;28;20654;-71
2021/06/10 05:05:02;;;;;;;20.85;14.13;;;18.80;99.90;;;;;;5013133;28;20048;-71
2021/06/10 05:07:27;;;;;;;23.45;15.48;;;19.00;99.90;;;;;;5012546;28;20368;-70
2021/06/10 05:09:53;;;;;;;22.83;15.32;;;19.00;99.90;;;;;;5012272;28;20045;-71
2021/06/10 05:12:18;;;;;;;22.70;16.25;;;19.10;99.90;;;;;;5013990;28;20053;-71
2021/06/10 05:14:44;;;;;;;24.90;16.15;;;19.10;99.90;;;;;;5012478;28;20052;-70
2021/06/10 05:17:10;;;;;;;23.88;17.00;;;19.20;99.90;;;;;;5012174;28;20034;-70
2021/06/10 05:19:35;;;;;;;24.50;16.70;;;19.20;99.90;;;;;;5012361;28;20482;-71
2021/06/10 05:22:01;;;;;;;27.67;16.23;;;19.20;99.90;;;;;;5012141;28;20411;-70
2021/06/10 05:24:27;;;;;;;28.98;17.98;;;19.30;99.90;;;;;;5012137;28;20030;-72
2021/06/10 05:26:54;;;;;;;25.15;17.17;;;19.40;99.90;;;;;;5012692;28;20030;-71
2021/06/10 05:29:20;;;;;;;37.13;19.00;;;19.40;99.90;;;;;;5011103;28;20364;-71
2021/06/10 05:31:46;;;;;;;29.80;19.33;;;19.40;99.90;;;;;;5012183;28;20176;-71
2021/06/10 05:34:12;;;;;;;32.88;18.77;;;19.50;99.90;;;;;;5012136;28;20124;-71
2021/06/10 05:36:38;;;;;;;30.02;17.10;;;19.40;99.40;;;;;;5012017;28;20034;-71
2021/06/10 05:39:04;;;;;;;22.75;16.33;;;19.50;99.30;;;;;;5013358;28;20041;-71
2021/06/10 05:41:30;;;;;;;26.77;16.15;;;19.50;99.10;;;;;;5011872;28;20033;-71
2021/06/10 05:43:56;;;;;;;30.10;15.88;;;19.50;99.00;;;;;;5011478;28;20125;-73
2021/06/10 05:46:22;;;;;;;23.70;15.48;;;19.60;98.80;;;;;;5011638;28;20084;-72
2021/06/10 05:48:48;;;;;;;29.52;14.98;;;19.70;98.80;;;;;;5011376;28;20498;-72
2021/06/10 05:51:14;;;;;;;23.63;15.73;;;19.80;98.80;;;;;;5012165;28;20136;-72
2021/06/10 05:53:40;;;;;;;26.88;15.20;;;19.90;98.80;;;;;;5011686;28;20049;-78
2021/06/10 05:56:06;;;;;;;25.23;15.50;;;19.90;98.90;;;;;;5012434;28;20034;-76
2021/06/10 05:58:32;;;;;;;25.05;14.98;;;20.00;99.00;;;;;;5012098;28;20128;-79
2021/06/10 06:00:58;;;;;;;22.95;15.00;;;20.30;99.20;;;;;;5011897;28;20108;-74
2021/06/10 06:03:26;;;;;;;21.52;15.70;;;20.20;98.90;;;;;;5012706;28;20451;-75
2021/06/10 06:05:52;;;;;;;24.42;15.73;;;20.30;98.60;;;;;;5013560;28;20234;-74
2021/06/10 06:08:18;;;;;;;22.45;15.13;;;20.30;99.00;;;;;;5012558;28;20084;-78
2021/06/10 06:10:48;;;;;;;31.00;15.73;;;20.30;98.70;;;;;;5011616;28;20050;-73
2021/06/10 06:13:15;;;;;;;22.73;15.05;;;20.30;98.50;;;;;;5011305;28;20415;-74
2021/06/10 06:15:41;;;;;;;22.70;14.02;;;20.30;98.50;;;;;;5011159;28;20044;-75
2021/06/10 06:18:08;;;;;;;28.77;15.73;;;20.50;98.70;;;;;;5012704;28;20030;-72
2021/06/10 06:20:34;;;;;;;20.53;14.80;;;20.60;98.40;;;;;;5011272;28;20057;-72
2021/06/10 06:22:59;;;;;;;19.42;15.23;;;20.70;98.50;;;;;;5010019;28;20372;-71
2021/06/10 06:25:25;;;;;;;20.17;15.02;;;20.90;98.80;;;;;;5000977;28;20053;-72
2021/06/10 06:27:50;;;;;;;19.80;14.55;;;21.00;98.40;;;;;;4990641;28;20053;-73
2021/06/10 06:30:17;;;;;;;25.90;14.25;;;21.10;98.20;;;;;;4993348;28;20034;-74
2021/06/10 06:32:43;;;;;;;20.42;14.38;;;21.30;98.20;;;;;;4991830;28;20034;-75
2021/06/10 06:35:09;;;;;;;22.70;15.23;;;21.30;98.20;;;;;;4991746;28;20333;-74
2021/06/10 06:37:35;;;;;;;23.75;15.98;;;21.40;97.90;;;;;;4992032;28;20200;-72
2021/06/10 06:40:03;;;;;;;23.83;15.05;;;21.50;98.00;;;;;;4992058;28;20034;-75
2021/06/10 06:42:29;;;;;;;22.20;15.13;;;21.50;98.00;;;;;;5007403;28;20387;-73
2021/06/10 06:44:54;;;;;;;22.67;15.65;;;21.70;98.10;;;;;;4993290;28;20042;-71
2021/06/10 06:47:20;;;;;;;23.50;15.63;;;21.80;97.80;;;;;;4991447;28;20038;-72
2021/06/10 06:49:46;;;;;;;20.92;15.93;;;21.90;97.70;;;;;;4991477;28;20045;-72
2021/06/10 06:52:11;;;;;;;30.25;17.42;;;22.00;97.70;;;;;;4991223;28;20031;-72
2021/06/10 06:54:37;;;;;;;24.15;15.27;;;21.90;97.40;;;;;;4990687;28;20074;-72
2021/06/10 06:57:04;;;;;;;24.77;16.95;;;22.00;97.50;;;;;;4992833;28;20030;-72
2021/06/10 06:59:30;;;;;;;24.25;16.48;;;22.10;97.40;;;;;;4990985;28;20409;-72
2021/06/10 07:01:56;;;;;;;25.98;15.65;;;22.20;97.40;;;;;;4990972;28;20457;-70
2021/06/10 07:04:22;;;;;;;22.05;15.73;;;22.30;97.40;;;;;;4991137;28;20050;-71
2021/06/10 07:06:47;;;;;;;22.98;14.70;;;22.30;97.40;;;;;;4990868;28;20532;-71
2021/06/10 07:09:13;;;;;;;19.58;13.88;;;22.40;97.30;;;;;;4992019;28;20049;-72
2021/06/10 07:11:39;;;;;;;21.40;15.07;;;22.40;97.20;;;;;;4990972;28;20065;-71
2021/06/10 07:14:05;;;;;;;26.25;16.15;;;22.50;97.20;;;;;;4990372;28;20049;-73
2021/06/10 07:16:30;;;;;;;24.15;14.82;;;22.50;97.00;;;;;;4990874;28;20189;-73
2021/06/10 07:18:56;;;;;;;23.83;15.60;;;22.50;96.90;;;;;;4990698;28;20045;-73
2021/06/10 07:21:22;;;;;;;21.77;15.27;;;22.60;97.00;;;;;;4989512;28;20030;-71
2021/06/10 07:23:47;;;;;;;26.95;15.95;;;22.70;97.00;;;;;;4992674;28;20019;-71
2021/06/10 07:26:13;;;;;;;23.42;15.82;;;22.80;96.80;;;;;;4990424;28;20034;-73
2021/06/10 07:28:39;;;;;;;22.95;16.00;;;22.90;96.70;;;;;;4980161;28;20070;-72
2021/06/10 07:31:04;;;;;;;24.98;15.48;;;23.00;96.70;;;;;;4976926;28;20059;-75
2021/06/10 07:33:30;;;;;;;25.58;15.98;;;23.10;96.60;;;;;;4989184;28;20026;-73
2021/06/10 07:35:56;;;;;;;29.02;16.50;;;23.20;96.40;;;;;;4972755;28;20111;-76
2021/06/10 07:38:21;;;;;;;29.15;16.00;;;23.30;96.30;;;;;;4971435;28;20058;-76
2021/06/10 07:40:47;;;;;;;22.83;16.52;;;23.50;96.10;;;;;;4971148;28;20023;-77
2021/06/10 07:43:12;;;;;;;25.73;17.50;;;23.70;96.00;;;;;;4976452;28;20041;-77
2021/06/10 07:45:38;;;;;;;33.08;18.92;;;24.10;95.90;;;;;;4988105;28;20084;-76
2021/06/10 07:48:05;;;;;;;22.58;17.17;;;24.30;95.10;;;;;;4972295;28;20079;-77
2021/06/10 07:50:31;;;;;;;23.33;17.15;;;24.60;95.20;;;;;;4969754;28;20090;-75
2021/06/10 07:52:57;;;;;;;21.15;15.65;;;24.70;94.80;;;;;;4983532;28;20030;-75
2021/06/10 07:55:23;;;;;;;27.77;16.85;;;25.20;95.10;;;;;;4990149;28;20129;-74
2021/06/10 07:57:50;;;;;;;22.70;15.20;;;25.40;94.10;;;;;;4990484;28;20038;-74
2021/06/10 08:00:17;;;;;;;18.52;14.55;;;25.70;93.80;;;;;;4991688;28;20041;-75
2021/06/10 08:02:43;;;;;;;19.30;14.80;;;26.10;93.80;;;;;;4971319;28;20105;-75
2021/06/10 08:05:10;;;;;;;23.70;16.05;;;26.80;92.80;;;;;;4984518;28;20050;-74
2021/06/10 08:07:36;;;;;;;22.42;14.55;;;27.10;91.60;;;;;;4989942;28;20126;-74
2021/06/10 08:10:03;;;;;;;21.52;15.50;;;27.30;91.20;;;;;;4989811;28;20090;-74
2021/06/10 08:12:29;;;;;;;21.52;13.98;;;27.60;90.90;;;;;;4989778;28;20026;-74
2021/06/10 08:14:54;;;;;;;20.85;15.18;;;27.90;90.70;;;;;;4991487;28;20634;-73
2021/06/10 08:17:20;;;;;;;22.77;13.98;;;28.00;89.60;;;;;;4989780;28;20026;-73
2021/06/10 08:19:45;;;;;;;19.02;14.18;;;28.60;89.00;;;;;;4989787;28;20369;-74
2021/06/10 08:22:11;;;;;;;20.88;14.60;;;28.40;88.90;;;;;;4989540;28;20448;-74
2021/06/10 08:24:37;;;;;;;18.83;15.63;;;28.00;88.80;;;;;;4989441;28;20030;-72
2021/06/10 08:27:07;;;;;;;22.88;15.65;;;28.30;88.40;;;;;;4991689;28;20026;-72
2021/06/10 08:29:33;;;;;;;19.48;15.43;;;28.30;88.50;;;;;;4990023;28;20046;-73
2021/06/10 08:31:59;;;;;;;22.80;16.58;;;28.40;88.50;;;;;;4976517;28;20043;-73
2021/06/10 08:34:25;;;;;;;20.52;15.45;;;28.30;87.80;;;;;;4978925;28;20065;-74
2021/06/10 08:36:51;;;;;;;21.42;15.15;;;28.40;89.00;;;;;;4986728;28;20421;-74
2021/06/10 08:39:16;;;;;;;23.25;15.65;;;29.00;88.30;;;;;;4991049;28;20089;-73
2021/06/10 08:41:43;;;;;;;22.58;14.40;;;29.20;85.60;;;;;;4989875;28;20037;-73
2021/06/10 08:44:09;;;;;;;21.33;14.70;;;29.90;84.90;;;;;;4975443;28;20060;-73
2021/06/10 08:46:36;;;;;;;18.30;15.55;;;29.30;85.50;;;;;;4970387;28;20051;-72
2021/06/10 08:49:04;;;;;;;21.20;14.52;;;28.90;84.10;;;;;;4970191;28;20046;-73
2021/06/10 08:51:30;;;;;;;24.67;15.00;;;29.20;83.50;;;;;;4970288;28;20023;-72
2021/06/10 08:53:57;;;;;;;19.25;14.52;;;29.20;83.00;;;;;;4971467;28;20035;-73
2021/06/10 08:56:27;;;;;;;19.42;16.08;;;29.90;82.20;;;;;;4986794;28;20035;-74
2021/06/10 08:58:53;;;;;;;21.10;14.80;;;29.00;83.20;;;;;;4988998;28;20488;-72
2021/06/10 09:01:19;;;;;;;22.63;14.95;;;29.20;83.80;;;;;;4990999;28;20058;-72
2021/06/10 09:03:44;;;;;;;16.77;13.27;;;29.40;83.00;;;;;;4993475;28;20120;-72
2021/06/10 09:06:11;;;;;;;18.67;14.55;;;29.40;83.00;;;;;;4994973;28;20022;-72
2021/06/10 09:08:39;;;;;;;18.60;15.43;;;29.60;81.70;;;;;;4992527;28;20519;-73
2021/06/10 09:11:26;;;;;;;24.23;16.77;;;29.90;81.30;;;;;;4992010;28;20101;-73
2021/06/10 09:13:57;;;;;;;20.23;15.70;;;29.90;79.40;;;;;;4993202;28;20034;-72
2021/06/10 09:16:35;;;;;;;22.50;14.80;;;30.50;78.60;;;;;;4993060;28;20038;-72
2021/06/10 09:19:04;;;;;;;24.05;16.95;;;30.30;76.80;;;;;;4992930;28;20171;-74
2021/06/10 09:21:44;;;;;;;21.90;16.35;;;29.70;77.30;;;;;;4992763;28;20031;-73
2021/06/10 09:24:22;;;;;;;22.42;15.98;;;29.80;77.50;;;;;;4992793;28;20031;-72
2021/06/10 09:27:09;;;;;;;16.75;14.02;;;29.40;78.40;;;;;;4992414;28;20034;-72
2021/06/10 09:29:47;;;;;;;18.95;16.77;;;29.40;78.10;;;;;;4989795;28;20092;-75
2021/06/10 09:32:27;;;;;;;20.55;15.02;;;28.70;77.50;;;;;;4992563;28;20073;-73
2021/06/10 09:35:04;;;;;;;24.60;16.73;;;28.80;76.60;;;;;;4980180;28;20071;-73
2021/06/10 09:37:35;;;;;;;23.40;16.10;;;28.70;75.20;;;;;;4972953;28;20034;-73
2021/06/10 09:40:10;;;;;;;22.63;16.88;;;28.30;77.00;;;;;;4973003;28;20045;-72
2021/06/10 09:42:38;;;;;;;20.33;16.48;;;28.20;76.90;;;;;;4972193;28;20102;-74
2021/06/10 09:45:07;;;;;;;22.45;17.33;;;28.30;77.60;;;;;;4973794;28;20057;-76
2021/06/10 09:47:39;;;;;;;23.42;16.00;;;28.50;76.60;;;;;;4972732;28;20035;-73
2021/06/10 09:50:24;;;;;;;23.90;16.02;;;28.10;76.20;;;;;;4972232;28;20031;-73
2021/06/10 09:52:57;;;;;;;24.52;16.92;;;28.00;78.00;;;;;;4984294;28;20084;-73
2021/06/10 09:55:29;;;;;;;22.77;17.73;;;28.10;77.70;;;;;;4992189;28;20113;-73
2021/06/10 09:57:55;;;;;;;25.50;17.30;;;28.30;76.30;;;;;;4991739;28;20053;-73
2021/06/10 10:00:26;;;;;;;23.60;17.42;;;28.10;75.90;;;;;;4993377;28;20027;-74
2021/06/10 10:02:53;;;;;;;21.83;14.23;;;28.10;76.90;;;;;;4992085;28;20053;-73
2021/06/10 10:05:24;;;;;;;20.77;14.77;;;28.10;75.10;;;;;;4991871;28;20054;-73
2021/06/10 10:07:51;;;;;;;16.75;12.75;;;28.10;74.30;;;;;;4992228;28;20088;-75
2021/06/10 10:10:16;;;;;;;19.23;12.07;;;28.40;74.40;;;;;;4991604;28;20469;-72
2021/06/10 10:12:47;;;;;;;14.23;10.10;;;28.50;74.30;;;;;;4990898;28;20053;-72
2021/06/10 10:15:13;;;;;;;10.02;7.35;;;28.30;67.60;;;;;;4992304;28;20056;-73
2021/06/10 10:17:39;;;;;;;8.73;6.53;;;28.20;64.20;;;;;;4973189;28;20030;-78
2021/06/10 10:20:07;;;;;;;12.02;8.00;;;28.10;63.30;;;;;;4972356;28;20058;-72
2021/06/10 10:22:35;;;;;;;8.35;5.80;;;28.10;64.10;;;;;;4972177;28;20049;-74
2021/06/10 10:25:02;;;;;;;5.18;3.85;;;28.20;63.00;;;;;;4971883;28;20066;-74
2021/06/10 10:27:28;;;;;;;10.77;5.10;;;28.00;58.90;;;;;;4972087;28;20027;-72
2021/06/10 10:29:55;;;;;;;9.30;3.88;;;27.80;59.50;;;;;;4972642;28;20191;-73
2021/06/10 10:32:30;;;;;;;8.13;3.40;;;27.60;58.20;;;;;;5002910;28;20033;-73
2021/06/10 10:35:27;;;;;;;7.15;3.10;;;27.80;57.60;;;;;;4978408;28;20046;-73
2021/06/10 10:37:55;;;;;;;4.63;3.17;;;27.80;56.90;;;;;;4983456;28;20035;-73
2021/06/10 10:40:23;;;;;;;5.88;4.03;;;27.90;56.30;;;;;;4991518;28;20034;-72
2021/06/10 10:42:51;;;;;;;7.30;4.05;;;27.90;57.90;;;;;;4987717;28;20070;-72
2021/06/10 10:45:23;;;;;;;6.68;4.03;;;28.00;58.20;;;;;;4973246;28;20039;-73
2021/06/10 10:48:01;;;;;;;4.38;3.70;;;28.00;57.80;;;;;;4991517;28;20042;-73
2021/06/10 10:50:37;;;;;;;7.30;4.55;;;28.00;57.60;;;;;;4991153;28;20408;-72
2021/06/10 10:53:08;;;;;;;7.10;4.00;;;27.90;56.60;;;;;;4991094;28;20468;-74
2021/06/10 10:55:34;;;;;;;7.30;4.57;;;27.70;57.50;;;;;;4990918;28;20137;-75
2021/06/10 10:58:10;;;;;;;7.97;5.47;;;27.60;58.40;;;;;;4990925;28;20388;-74
2021/06/10 11:00:56;;;;;;;9.63;7.78;;;27.70;59.50;;;;;;4991169;28;20018;-73
2021/06/10 11:03:43;;;;;;;8.05;5.63;;;27.40;61.50;;;;;;4992747;28;20062;-73
2021/06/10 11:06:21;;;;;;;11.25;6.63;;;27.70;62.90;;;;;;4990644;28;20101;-73
2021/06/10 11:09:10;;;;;;;10.68;7.63;;;27.70;62.20;;;;;;4990491;28;20046;-73
2021/06/10 11:11:48;;;;;;;10.43;8.38;;;27.80;62.70;;;;;;4990654;28;20037;-73
2021/06/10 11:14:36;;;;;;;13.18;8.07;;;27.70;63.70;;;;;;4990204;28;20030;-76
2021/06/10 11:17:25;;;;;;;7.72;6.05;;;27.60;64.60;;;;;;4990409;28;20034;-76
2021/06/10 11:19:51;;;;;;;6.82;4.80;;;27.80;65.00;;;;;;4978354;28;20102;-76
2021/06/10 11:22:39;;;;;;;8.85;5.88;;;28.10;63.70;;;;;;4971103;28;20657;-80
2021/06/10 11:25:25;;;;;;;8.23;5.32;;;28.10;62.90;;;;;;4976445;28;20039;-79
2021/06/10 11:27:51;;;;;;;7.07;4.53;;;27.90;59.90;;;;;;4986369;28;20081;-82
2021/06/10 11:30:21;;;;;;;11.13;5.25;;;27.80;60.50;;;;;;4990909;28;20145;-77
2021/06/10 11:33:09;;;;;;;7.75;4.90;;;27.80;59.60;;;;;;4989694;28;20093;-84
2021/06/10 11:35:41;;;;;;;5.63;4.28;;;27.80;59.50;;;;;;4989751;28;20073;-80
2021/06/10 11:38:14;;;;;;;7.15;4.53;;;27.70;59.60;;;;;;4990424;28;20042;-75
2021/06/10 11:40:41;;;;;;;6.35;4.72;;;27.70;59.30;;;;;;4979891;28;20054;-71
2021/06/10 11:43:09;;;;;;;7.10;4.15;;;27.80;59.10;;;;;;4970180;28;20058;-74
2021/06/10 11:45:35;;;;;;;;;;;27.90;58.70;;;;;;4989262;28;20038;-76
2021/06/10 11:48:01;;;;;;;8.82;4.38;;;27.80;57.60;;;;;;5026710;28;19905;-76
2021/06/10 11:50:30;;;;;;;8.45;3.92;;;27.70;56.90;;;;;;5009555;28;20426;-75
2021/06/10 11:53:19;;;;;;;5.40;3.50;;;27.60;57.70;;;;;;5009338;28;20038;-75
2021/06/10 11:55:47;;;;;;;6.95;3.92;;;27.90;57.30;;;;;;5009988;28;20087;-76
2021/06/10 11:58:14;;;;;;;6.95;3.05;;;27.70;55.80;;;;;;5009488;28;20042;-74
2021/06/10 12:00:43;;;;;;;10.52;3.42;;;27.80;56.00;;;;;;5009845;28;20041;-74
2021/06/10 12:03:11;;;;;;;4.70;3.40;;;27.80;55.30;;;;;;5011200;28;20025;-74
2021/06/10 12:06:10;;;;;;;5.68;4.95;;;27.70;56.00;;;;;;5008721;28;20073;-75
2021/06/10 12:08:36;;;;;;;10.40;5.43;;;27.80;57.90;;;;;;5000349;28;20353;-75
2021/06/10 12:11:10;;;;;;;9.85;4.15;;;27.80;58.50;;;;;;5009586;28;20432;-74
2021/06/10 12:13:44;;;;;;;4.22;3.83;;;27.90;58.70;;;;;;5007952;28;20049;-75
2021/06/10 12:16:12;;;;;;;8.57;4.03;;;27.90;58.20;;;;;;5009168;28;20527;-75
2021/06/10 12:18:40;;;;;;;17.85;4.88;;;27.90;57.50;;;;;;5009510;28;20419;-74
2021/06/10 12:21:09;;;;;;;6.68;4.20;;;27.80;58.30;;;;;;5011098;28;20112;-76
2021/06/10 12:23:40;;;;;;;9.10;5.03;;;27.90;59.30;;;;;;5009746;28;20129;-75
2021/06/10 12:26:14;;;;;;;6.30;4.60;;;27.90;59.20;;;;;;5009340;28;20129;-74
2021/06/10 12:28:50;;;;;;;6.85;4.30;;;28.00;59.00;;;;;;5009083;28;20391;-73
2021/06/10 12:31:17;;;;;;;7.30;3.55;;;28.10;59.40;;;;;;5007998;28;20457;-74
2021/06/10 12:33:51;;;;;;;4.68;3.60;;;28.30;59.10;;;;;;5009154;28;20038;-74
2021/06/10 12:36:38;;;;;;;6.55;3.58;;;28.30;56.50;;;;;;5012103;28;20048;-75
2021/06/10 12:39:09;;;;;;;8.00;4.13;;;28.00;56.90;;;;;;5013373;28;20092;-73